Kortcamp, Illinois
Current Conditions -  °F | °C
As of 9:55 AM on Friday 21 Nov 2014 (Local Time) from K3LF Reporting Station
Clear Clear  
Wind Chill: -8°   Ceiling: Unl
Heat Index: -3°   Visibility: 10mi
Dew Point: -11°   Wind: 12mph
Humidity: 53%   Direction: 120°ESE
Pressure: 30.44"   Gusts: NA
Location:  39.1415°N, 89.5029°W
Report Text: K3LF 211555Z AUTO 12010KT 10SM CLR M03/M11 A3044 RMK AO2 T10261111
Loading
Personal Weather Stations






























Interactive Weather Map New forecast layout! Learn more

10-Day Weather Forecast

Advertisements
Track Severe Weather on mobile